sensor_id;sensor_type;location;lat;lon;timestamp;P1;durP1;ratioP1;P2;durP2;ratioP2
80961;SDS011;70424;55.154;14.722;2024-01-07T00:02:23;3.20;;;2.10;;
80961;SDS011;70424;55.154;14.722;2024-01-07T00:04:49;5.35;;;2.33;;
80961;SDS011;70424;55.154;14.722;2024-01-07T00:07:14;3.40;;;2.10;;
80961;SDS011;70424;55.154;14.722;2024-01-07T00:09:39;4.88;;;2.40;;
80961;SDS011;70424;55.154;14.722;2024-01-07T00:12:05;4.18;;;2.10;;
80961;SDS011;70424;55.154;14.722;2024-01-07T00:14:31;4.22;;;2.53;;
80961;SDS011;70424;55.154;14.722;2024-01-07T00:16:56;5.65;;;2.20;;
80961;SDS011;70424;55.154;14.722;2024-01-07T00:19:22;4.10;;;2.10;;
80961;SDS011;70424;55.154;14.722;2024-01-07T00:21:47;3.95;;;1.90;;
80961;SDS011;70424;55.154;14.722;2024-01-07T00:24:13;3.05;;;1.80;;
80961;SDS011;70424;55.154;14.722;2024-01-07T00:26:38;3.03;;;1.67;;
80961;SDS011;70424;55.154;14.722;2024-01-07T00:29:04;3.08;;;2.03;;
80961;SDS011;70424;55.154;14.722;2024-01-07T00:31:29;3.47;;;1.80;;
80961;SDS011;70424;55.154;14.722;2024-01-07T00:33:55;2.22;;;1.75;;
80961;SDS011;70424;55.154;14.722;2024-01-07T00:36:21;2.92;;;1.58;;
80961;SDS011;70424;55.154;14.722;2024-01-07T00:38:46;4.20;;;2.00;;
80961;SDS011;70424;55.154;14.722;2024-01-07T00:41:14;4.13;;;1.77;;
80961;SDS011;70424;55.154;14.722;2024-01-07T00:43:40;2.47;;;1.80;;
80961;SDS011;70424;55.154;14.722;2024-01-07T00:46:06;3.35;;;1.70;;
80961;SDS011;70424;55.154;14.722;2024-01-07T00:48:31;2.63;;;1.60;;
80961;SDS011;70424;55.154;14.722;2024-01-07T00:50:56;3.40;;;1.70;;
80961;SDS011;70424;55.154;14.722;2024-01-07T00:53:22;3.67;;;1.80;;
80961;SDS011;70424;55.154;14.722;2024-01-07T00:55:47;3.75;;;1.90;;
80961;SDS011;70424;55.154;14.722;2024-01-07T00:58:13;2.25;;;1.85;;
80961;SDS011;70424;55.154;14.722;2024-01-07T01:00:38;3.40;;;2.03;;
80961;SDS011;70424;55.154;14.722;2024-01-07T01:03:03;3.38;;;1.92;;
80961;SDS011;70424;55.154;14.722;2024-01-07T01:05:29;2.47;;;1.77;;
80961;SDS011;70424;55.154;14.722;2024-01-07T01:07:54;4.15;;;1.75;;
80961;SDS011;70424;55.154;14.722;2024-01-07T01:10:20;3.58;;;2.25;;
80961;SDS011;70424;55.154;14.722;2024-01-07T01:12:46;3.08;;;2.08;;
80961;SDS011;70424;55.154;14.722;2024-01-07T01:15:11;4.43;;;2.30;;
80961;SDS011;70424;55.154;14.722;2024-01-07T01:17:37;4.60;;;2.25;;
80961;SDS011;70424;55.154;14.722;2024-01-07T01:20:02;3.97;;;2.38;;
80961;SDS011;70424;55.154;14.722;2024-01-07T01:22:29;4.20;;;2.40;;
80961;SDS011;70424;55.154;14.722;2024-01-07T01:24:54;3.47;;;2.00;;
80961;SDS011;70424;55.154;14.722;2024-01-07T01:27:21;5.30;;;2.30;;
80961;SDS011;70424;55.154;14.722;2024-01-07T01:29:46;4.30;;;2.00;;
80961;SDS011;70424;55.154;14.722;2024-01-07T01:32:12;5.28;;;2.50;;
80961;SDS011;70424;55.154;14.722;2024-01-07T01:34:37;3.45;;;1.90;;
80961;SDS011;70424;55.154;14.722;2024-01-07T01:37:04;5.43;;;2.33;;
80961;SDS011;70424;55.154;14.722;2024-01-07T01:39:30;3.67;;;2.28;;
80961;SDS011;70424;55.154;14.722;2024-01-07T01:41:55;5.30;;;2.33;;
80961;SDS011;70424;55.154;14.722;2024-01-07T01:44:21;3.00;;;1.98;;
80961;SDS011;70424;55.154;14.722;2024-01-07T01:46:47;5.78;;;2.60;;
80961;SDS011;70424;55.154;14.722;2024-01-07T01:49:12;3.60;;;2.10;;
80961;SDS011;70424;55.154;14.722;2024-01-07T01:51:38;2.58;;;1.98;;
80961;SDS011;70424;55.154;14.722;2024-01-07T01:54:04;4.70;;;2.20;;
80961;SDS011;70424;55.154;14.722;2024-01-07T01:56:30;3.20;;;1.88;;
80961;SDS011;70424;55.154;14.722;2024-01-07T01:58:56;3.88;;;2.35;;
80961;SDS011;70424;55.154;14.722;2024-01-07T02:01:22;3.30;;;1.75;;
80961;SDS011;70424;55.154;14.722;2024-01-07T02:03:48;3.88;;;2.10;;
80961;SDS011;70424;55.154;14.722;2024-01-07T02:06:14;3.65;;;1.98;;
80961;SDS011;70424;55.154;14.722;2024-01-07T02:08:41;3.03;;;1.80;;
80961;SDS011;70424;55.154;14.722;2024-01-07T02:11:24;3.08;;;2.15;;
80961;SDS011;70424;55.154;14.722;2024-01-07T02:13:49;3.67;;;2.00;;
80961;SDS011;70424;55.154;14.722;2024-01-07T02:16:15;3.55;;;2.15;;
80961;SDS011;70424;55.154;14.722;2024-01-07T02:18:41;3.67;;;1.63;;
80961;SDS011;70424;55.154;14.722;2024-01-07T02:21:08;2.97;;;1.63;;
80961;SDS011;70424;55.154;14.722;2024-01-07T02:23:34;3.08;;;1.77;;
80961;SDS011;70424;55.154;14.722;2024-01-07T02:26:00;2.47;;;1.73;;
80961;SDS011;70424;55.154;14.722;2024-01-07T02:28:25;2.38;;;1.58;;
80961;SDS011;70424;55.154;14.722;2024-01-07T02:30:51;3.22;;;1.60;;
80961;SDS011;70424;55.154;14.722;2024-01-07T02:33:16;2.08;;;1.38;;
80961;SDS011;70424;55.154;14.722;2024-01-07T02:35:41;3.00;;;1.52;;
80961;SDS011;70424;55.154;14.722;2024-01-07T02:38:07;2.03;;;1.48;;
80961;SDS011;70424;55.154;14.722;2024-01-07T02:40:32;2.30;;;1.60;;
80961;SDS011;70424;55.154;14.722;2024-01-07T02:42:58;2.08;;;1.45;;
80961;SDS011;70424;55.154;14.722;2024-01-07T02:45:23;2.70;;;1.50;;
80961;SDS011;70424;55.154;14.722;2024-01-07T02:47:49;3.67;;;1.60;;
80961;SDS011;70424;55.154;14.722;2024-01-07T02:50:14;2.20;;;1.50;;
80961;SDS011;70424;55.154;14.722;2024-01-07T02:52:41;2.50;;;1.60;;
80961;SDS011;70424;55.154;14.722;2024-01-07T02:55:07;2.47;;;1.33;;
80961;SDS011;70424;55.154;14.722;2024-01-07T02:57:32;1.55;;;1.45;;
80961;SDS011;70424;55.154;14.722;2024-01-07T02:59:58;2.70;;;1.60;;
80961;SDS011;70424;55.154;14.722;2024-01-07T03:02:23;2.45;;;1.70;;
80961;SDS011;70424;55.154;14.722;2024-01-07T03:04:49;3.25;;;2.10;;
80961;SDS011;70424;55.154;14.722;2024-01-07T03:07:14;3.42;;;1.70;;
80961;SDS011;70424;55.154;14.722;2024-01-07T03:09:39;2.20;;;1.50;;
80961;SDS011;70424;55.154;14.722;2024-01-07T03:12:05;4.55;;;1.80;;
80961;SDS011;70424;55.154;14.722;2024-01-07T03:14:30;2.78;;;1.80;;
80961;SDS011;70424;55.154;14.722;2024-01-07T03:16:56;3.08;;;1.60;;
80961;SDS011;70424;55.154;14.722;2024-01-07T03:19:21;2.97;;;1.80;;
80961;SDS011;70424;55.154;14.722;2024-01-07T03:21:47;2.75;;;1.55;;
80961;SDS011;70424;55.154;14.722;2024-01-07T03:24:13;2.28;;;1.63;;
80961;SDS011;70424;55.154;14.722;2024-01-07T03:26:39;2.42;;;1.70;;
80961;SDS011;70424;55.154;14.722;2024-01-07T03:29:04;2.03;;;1.58;;
80961;SDS011;70424;55.154;14.722;2024-01-07T03:31:30;3.05;;;1.73;;
80961;SDS011;70424;55.154;14.722;2024-01-07T03:33:55;3.35;;;1.90;;
80961;SDS011;70424;55.154;14.722;2024-01-07T03:36:20;3.67;;;2.22;;
80961;SDS011;70424;55.154;14.722;2024-01-07T03:38:46;3.35;;;1.88;;
80961;SDS011;70424;55.154;14.722;2024-01-07T03:41:15;2.50;;;1.80;;
80961;SDS011;70424;55.154;14.722;2024-01-07T03:43:48;2.42;;;1.70;;
80961;SDS011;70424;55.154;14.722;2024-01-07T03:46:14;3.03;;;2.03;;
80961;SDS011;70424;55.154;14.722;2024-01-07T03:48:43;3.65;;;1.95;;
80961;SDS011;70424;55.154;14.722;2024-01-07T03:51:09;4.47;;;1.83;;
80961;SDS011;70424;55.154;14.722;2024-01-07T03:53:35;2.17;;;1.38;;
80961;SDS011;70424;55.154;14.722;2024-01-07T03:56:00;2.67;;;1.63;;
80961;SDS011;70424;55.154;14.722;2024-01-07T03:58:25;2.80;;;1.90;;
80961;SDS011;70424;55.154;14.722;2024-01-07T04:00:51;2.90;;;1.45;;
80961;SDS011;70424;55.154;14.722;2024-01-07T04:03:16;2.47;;;1.55;;
80961;SDS011;70424;55.154;14.722;2024-01-07T04:05:42;3.17;;;1.83;;
80961;SDS011;70424;55.154;14.722;2024-01-07T04:08:10;2.58;;;1.70;;
80961;SDS011;70424;55.154;14.722;2024-01-07T04:10:36;2.40;;;1.67;;
80961;SDS011;70424;55.154;14.722;2024-01-07T04:13:02;3.75;;;1.77;;
80961;SDS011;70424;55.154;14.722;2024-01-07T04:15:27;3.85;;;2.05;;
80961;SDS011;70424;55.154;14.722;2024-01-07T04:17:52;3.75;;;2.08;;
80961;SDS011;70424;55.154;14.722;2024-01-07T04:20:18;4.93;;;2.10;;
80961;SDS011;70424;55.154;14.722;2024-01-07T04:22:43;2.78;;;1.98;;
80961;SDS011;70424;55.154;14.722;2024-01-07T04:25:09;3.20;;;1.88;;
80961;SDS011;70424;55.154;14.722;2024-01-07T04:27:35;3.97;;;1.98;;
80961;SDS011;70424;55.154;14.722;2024-01-07T04:30:02;3.78;;;2.22;;
80961;SDS011;70424;55.154;14.722;2024-01-07T04:32:27;3.60;;;2.42;;
80961;SDS011;70424;55.154;14.722;2024-01-07T04:34:53;3.17;;;2.00;;
80961;SDS011;70424;55.154;14.722;2024-01-07T04:37:18;3.47;;;2.35;;
80961;SDS011;70424;55.154;14.722;2024-01-07T04:39:44;2.60;;;1.90;;
80961;SDS011;70424;55.154;14.722;2024-01-07T04:42:09;2.75;;;2.17;;
80961;SDS011;70424;55.154;14.722;2024-01-07T04:44:35;2.95;;;1.90;;
80961;SDS011;70424;55.154;14.722;2024-01-07T04:47:00;3.00;;;1.88;;
80961;SDS011;70424;55.154;14.722;2024-01-07T04:49:26;3.60;;;1.80;;
80961;SDS011;70424;55.154;14.722;2024-01-07T04:51:51;2.90;;;2.08;;
80961;SDS011;70424;55.154;14.722;2024-01-07T04:54:17;3.63;;;2.05;;
80961;SDS011;70424;55.154;14.722;2024-01-07T04:56:43;3.10;;;2.13;;
80961;SDS011;70424;55.154;14.722;2024-01-07T04:59:12;5.22;;;2.35;;
80961;SDS011;70424;55.154;14.722;2024-01-07T05:01:40;4.53;;;2.83;;
80961;SDS011;70424;55.154;14.722;2024-01-07T05:04:05;3.85;;;2.35;;
80961;SDS011;70424;55.154;14.722;2024-01-07T05:06:30;4.75;;;2.95;;
80961;SDS011;70424;55.154;14.722;2024-01-07T05:08:56;4.95;;;2.42;;
80961;SDS011;70424;55.154;14.722;2024-01-07T05:11:21;4.30;;;2.50;;
80961;SDS011;70424;55.154;14.722;2024-01-07T05:13:47;4.70;;;2.28;;
80961;SDS011;70424;55.154;14.722;2024-01-07T05:16:19;3.50;;;2.10;;
80961;SDS011;70424;55.154;14.722;2024-01-07T05:18:44;5.30;;;2.70;;
80961;SDS011;70424;55.154;14.722;2024-01-07T05:21:13;4.47;;;2.50;;
80961;SDS011;70424;55.154;14.722;2024-01-07T05:23:43;4.78;;;2.60;;
80961;SDS011;70424;55.154;14.722;2024-01-07T05:26:08;5.50;;;2.70;;
80961;SDS011;70424;55.154;14.722;2024-01-07T05:28:36;5.13;;;2.92;;
80961;SDS011;70424;55.154;14.722;2024-01-07T05:31:01;5.17;;;2.80;;
80961;SDS011;70424;55.154;14.722;2024-01-07T05:33:27;4.35;;;2.63;;
80961;SDS011;70424;55.154;14.722;2024-01-07T05:35:52;4.22;;;2.50;;
80961;SDS011;70424;55.154;14.722;2024-01-07T05:38:18;3.70;;;2.58;;
80961;SDS011;70424;55.154;14.722;2024-01-07T05:40:43;4.10;;;2.70;;
80961;SDS011;70424;55.154;14.722;2024-01-07T05:43:08;4.65;;;2.50;;
80961;SDS011;70424;55.154;14.722;2024-01-07T05:45:34;3.97;;;2.47;;
80961;SDS011;70424;55.154;14.722;2024-01-07T05:48:00;4.85;;;2.72;;
80961;SDS011;70424;55.154;14.722;2024-01-07T05:50:25;4.32;;;2.50;;
80961;SDS011;70424;55.154;14.722;2024-01-07T05:52:50;5.22;;;3.00;;
80961;SDS011;70424;55.154;14.722;2024-01-07T05:55:16;5.07;;;2.83;;
80961;SDS011;70424;55.154;14.722;2024-01-07T05:57:42;4.60;;;2.67;;
80961;SDS011;70424;55.154;14.722;2024-01-07T06:00:08;5.13;;;3.10;;
80961;SDS011;70424;55.154;14.722;2024-01-07T06:02:35;5.13;;;3.22;;
80961;SDS011;70424;55.154;14.722;2024-01-07T06:05:02;5.35;;;3.17;;
80961;SDS011;70424;55.154;14.722;2024-01-07T06:07:28;4.65;;;2.72;;
80961;SDS011;70424;55.154;14.722;2024-01-07T06:09:53;5.75;;;2.95;;
80961;SDS011;70424;55.154;14.722;2024-01-07T06:12:19;4.15;;;2.63;;
80961;SDS011;70424;55.154;14.722;2024-01-07T06:14:45;4.80;;;2.88;;
80961;SDS011;70424;55.154;14.722;2024-01-07T06:17:10;6.07;;;2.92;;
80961;SDS011;70424;55.154;14.722;2024-01-07T06:19:36;4.60;;;2.47;;
80961;SDS011;70424;55.154;14.722;2024-01-07T06:22:01;4.47;;;2.60;;
80961;SDS011;70424;55.154;14.722;2024-01-07T06:24:27;4.22;;;2.80;;
80961;SDS011;70424;55.154;14.722;2024-01-07T06:26:52;5.45;;;3.05;;
80961;SDS011;70424;55.154;14.722;2024-01-07T06:29:17;5.97;;;3.53;;
80961;SDS011;70424;55.154;14.722;2024-01-07T06:31:44;5.57;;;3.53;;
80961;SDS011;70424;55.154;14.722;2024-01-07T06:34:13;6.80;;;2.80;;
80961;SDS011;70424;55.154;14.722;2024-01-07T06:36:39;5.25;;;3.05;;
80961;SDS011;70424;55.154;14.722;2024-01-07T06:39:06;5.45;;;3.53;;
80961;SDS011;70424;55.154;14.722;2024-01-07T06:41:32;5.05;;;3.08;;
80961;SDS011;70424;55.154;14.722;2024-01-07T06:43:58;5.85;;;3.40;;
80961;SDS011;70424;55.154;14.722;2024-01-07T06:46:24;6.22;;;3.58;;
80961;SDS011;70424;55.154;14.722;2024-01-07T06:48:49;6.80;;;3.58;;
80961;SDS011;70424;55.154;14.722;2024-01-07T06:51:14;7.25;;;3.67;;
80961;SDS011;70424;55.154;14.722;2024-01-07T06:53:40;8.90;;;3.72;;
80961;SDS011;70424;55.154;14.722;2024-01-07T06:56:06;5.97;;;3.42;;
80961;SDS011;70424;55.154;14.722;2024-01-07T06:58:31;7.20;;;3.53;;
80961;SDS011;70424;55.154;14.722;2024-01-07T07:00:57;5.95;;;2.83;;
80961;SDS011;70424;55.154;14.722;2024-01-07T07:03:23;6.88;;;3.20;;
80961;SDS011;70424;55.154;14.722;2024-01-07T07:05:48;5.55;;;2.92;;
80961;SDS011;70424;55.154;14.722;2024-01-07T07:08:13;7.88;;;3.30;;
80961;SDS011;70424;55.154;14.722;2024-01-07T07:10:39;6.85;;;3.17;;
80961;SDS011;70424;55.154;14.722;2024-01-07T07:13:04;6.30;;;3.45;;
80961;SDS011;70424;55.154;14.722;2024-01-07T07:15:30;5.82;;;3.25;;
80961;SDS011;70424;55.154;14.722;2024-01-07T07:17:55;5.55;;;3.38;;
80961;SDS011;70424;55.154;14.722;2024-01-07T07:20:21;6.00;;;3.17;;
80961;SDS011;70424;55.154;14.722;2024-01-07T07:22:46;6.38;;;3.60;;
80961;SDS011;70424;55.154;14.722;2024-01-07T07:25:12;6.70;;;3.45;;
80961;SDS011;70424;55.154;14.722;2024-01-07T07:27:37;8.52;;;3.75;;
80961;SDS011;70424;55.154;14.722;2024-01-07T07:30:03;5.70;;;3.47;;
80961;SDS011;70424;55.154;14.722;2024-01-07T07:32:29;6.03;;;3.67;;
80961;SDS011;70424;55.154;14.722;2024-01-07T07:34:55;5.40;;;3.28;;
80961;SDS011;70424;55.154;14.722;2024-01-07T07:37:20;4.80;;;3.15;;
80961;SDS011;70424;55.154;14.722;2024-01-07T07:39:46;6.82;;;3.97;;
80961;SDS011;70424;55.154;14.722;2024-01-07T07:42:11;5.97;;;3.40;;
80961;SDS011;70424;55.154;14.722;2024-01-07T07:44:36;5.53;;;3.60;;
80961;SDS011;70424;55.154;14.722;2024-01-07T07:47:04;6.65;;;3.65;;
80961;SDS011;70424;55.154;14.722;2024-01-07T07:49:29;6.97;;;3.90;;
80961;SDS011;70424;55.154;14.722;2024-01-07T07:51:55;6.05;;;3.47;;
80961;SDS011;70424;55.154;14.722;2024-01-07T07:54:21;7.30;;;3.80;;
80961;SDS011;70424;55.154;14.722;2024-01-07T07:56:47;7.60;;;4.25;;
80961;SDS011;70424;55.154;14.722;2024-01-07T07:59:13;8.18;;;3.83;;
80961;SDS011;70424;55.154;14.722;2024-01-07T08:01:38;8.98;;;4.57;;
80961;SDS011;70424;55.154;14.722;2024-01-07T08:04:04;11.68;;;4.93;;
80961;SDS011;70424;55.154;14.722;2024-01-07T08:06:30;9.63;;;4.30;;
80961;SDS011;70424;55.154;14.722;2024-01-07T08:08:56;9.18;;;3.90;;
80961;SDS011;70424;55.154;14.722;2024-01-07T08:11:21;8.43;;;4.60;;
80961;SDS011;70424;55.154;14.722;2024-01-07T08:13:46;8.02;;;4.10;;
80961;SDS011;70424;55.154;14.722;2024-01-07T08:16:12;8.70;;;4.70;;
80961;SDS011;70424;55.154;14.722;2024-01-07T08:18:38;6.97;;;4.20;;
80961;SDS011;70424;55.154;14.722;2024-01-07T08:21:04;5.90;;;3.60;;
80961;SDS011;70424;55.154;14.722;2024-01-07T08:23:29;7.05;;;4.03;;
80961;SDS011;70424;55.154;14.722;2024-01-07T08:25:55;8.40;;;5.10;;
80961;SDS011;70424;55.154;14.722;2024-01-07T08:28:21;8.07;;;4.45;;
80961;SDS011;70424;55.154;14.722;2024-01-07T08:30:47;7.63;;;3.95;;
80961;SDS011;70424;55.154;14.722;2024-01-07T08:33:12;7.38;;;3.97;;
80961;SDS011;70424;55.154;14.722;2024-01-07T08:35:38;7.65;;;3.95;;
80961;SDS011;70424;55.154;14.722;2024-01-07T08:38:03;8.48;;;4.15;;
80961;SDS011;70424;55.154;14.722;2024-01-07T08:40:30;7.47;;;4.50;;
80961;SDS011;70424;55.154;14.722;2024-01-07T08:42:56;8.48;;;4.30;;
80961;SDS011;70424;55.154;14.722;2024-01-07T08:45:21;9.60;;;4.50;;
80961;SDS011;70424;55.154;14.722;2024-01-07T08:47:47;9.60;;;4.80;;
80961;SDS011;70424;55.154;14.722;2024-01-07T08:50:12;8.10;;;4.75;;
80961;SDS011;70424;55.154;14.722;2024-01-07T08:52:38;8.43;;;4.97;;
80961;SDS011;70424;55.154;14.722;2024-01-07T08:55:04;8.27;;;4.60;;
80961;SDS011;70424;55.154;14.722;2024-01-07T08:57:31;8.05;;;5.22;;
80961;SDS011;70424;55.154;14.722;2024-01-07T08:59:57;7.65;;;4.82;;
80961;SDS011;70424;55.154;14.722;2024-01-07T09:02:22;9.73;;;4.63;;
80961;SDS011;70424;55.154;14.722;2024-01-07T09:04:47;8.93;;;4.80;;
80961;SDS011;70424;55.154;14.722;2024-01-07T09:07:13;9.88;;;5.20;;
80961;SDS011;70424;55.154;14.722;2024-01-07T09:12:06;11.05;;;5.78;;
80961;SDS011;70424;55.154;14.722;2024-01-07T09:14:32;9.90;;;5.38;;
80961;SDS011;70424;55.154;14.722;2024-01-07T09:16:58;9.52;;;5.43;;
80961;SDS011;70424;55.154;14.722;2024-01-07T09:19:23;12.88;;;6.63;;
80961;SDS011;70424;55.154;14.722;2024-01-07T09:21:49;7.70;;;4.15;;
80961;SDS011;70424;55.154;14.722;2024-01-07T09:24:14;7.38;;;4.07;;
80961;SDS011;70424;55.154;14.722;2024-01-07T09:26:40;7.80;;;4.00;;
80961;SDS011;70424;55.154;14.722;2024-01-07T09:29:05;6.10;;;4.32;;
80961;SDS011;70424;55.154;14.722;2024-01-07T09:31:30;8.52;;;4.97;;
80961;SDS011;70424;55.154;14.722;2024-01-07T09:33:56;9.20;;;5.30;;
80961;SDS011;70424;55.154;14.722;2024-01-07T09:36:21;9.45;;;5.10;;
80961;SDS011;70424;55.154;14.722;2024-01-07T09:38:47;8.68;;;5.00;;
80961;SDS011;70424;55.154;14.722;2024-01-07T09:41:12;7.18;;;4.45;;
80961;SDS011;70424;55.154;14.722;2024-01-07T09:43:38;8.95;;;6.03;;
80961;SDS011;70424;55.154;14.722;2024-01-07T09:46:03;11.23;;;5.43;;
80961;SDS011;70424;55.154;14.722;2024-01-07T09:48:29;8.88;;;4.30;;
80961;SDS011;70424;55.154;14.722;2024-01-07T09:50:55;10.00;;;4.50;;
80961;SDS011;70424;55.154;14.722;2024-01-07T09:53:25;6.60;;;3.92;;
80961;SDS011;70424;55.154;14.722;2024-01-07T09:56:17;7.97;;;4.13;;
80961;SDS011;70424;55.154;14.722;2024-01-07T09:58:48;6.43;;;3.90;;
80961;SDS011;70424;55.154;14.722;2024-01-07T10:01:15;9.93;;;4.32;;
80961;SDS011;70424;55.154;14.722;2024-01-07T10:03:42;6.80;;;3.75;;
80961;SDS011;70424;55.154;14.722;2024-01-07T10:06:07;8.45;;;3.33;;
80961;SDS011;70424;55.154;14.722;2024-01-07T10:08:33;9.70;;;3.65;;
80961;SDS011;70424;55.154;14.722;2024-01-07T10:10:58;7.10;;;3.67;;
80961;SDS011;70424;55.154;14.722;2024-01-07T10:13:24;5.80;;;3.40;;
80961;SDS011;70424;55.154;14.722;2024-01-07T10:15:49;5.28;;;2.88;;
80961;SDS011;70424;55.154;14.722;2024-01-07T10:18:14;6.18;;;3.45;;
80961;SDS011;70424;55.154;14.722;2024-01-07T10:20:40;8.20;;;3.63;;
80961;SDS011;70424;55.154;14.722;2024-01-07T10:23:05;7.45;;;3.85;;
80961;SDS011;70424;55.154;14.722;2024-01-07T10:25:33;6.00;;;3.00;;
80961;SDS011;70424;55.154;14.722;2024-01-07T10:27:59;5.28;;;3.20;;
80961;SDS011;70424;55.154;14.722;2024-01-07T10:30:25;6.82;;;4.22;;
80961;SDS011;70424;55.154;14.722;2024-01-07T10:32:54;7.15;;;3.97;;
80961;SDS011;70424;55.154;14.722;2024-01-07T10:35:22;7.35;;;3.80;;
80961;SDS011;70424;55.154;14.722;2024-01-07T10:37:52;6.47;;;4.03;;
80961;SDS011;70424;55.154;14.722;2024-01-07T10:40:18;8.48;;;3.88;;
80961;SDS011;70424;55.154;14.722;2024-01-07T10:42:43;6.55;;;4.18;;
80961;SDS011;70424;55.154;14.722;2024-01-07T10:45:10;7.45;;;3.72;;
80961;SDS011;70424;55.154;14.722;2024-01-07T10:47:36;10.18;;;4.88;;
80961;SDS011;70424;55.154;14.722;2024-01-07T10:50:02;10.40;;;4.78;;
80961;SDS011;70424;55.154;14.722;2024-01-07T10:52:28;8.50;;;4.57;;
80961;SDS011;70424;55.154;14.722;2024-01-07T10:54:56;10.55;;;4.70;;
80961;SDS011;70424;55.154;14.722;2024-01-07T10:57:31;10.63;;;5.05;;
80961;SDS011;70424;55.154;14.722;2024-01-07T11:00:00;11.82;;;4.82;;
80961;SDS011;70424;55.154;14.722;2024-01-07T11:02:31;7.05;;;4.60;;
80961;SDS011;70424;55.154;14.722;2024-01-07T11:07:31;9.13;;;5.03;;
80961;SDS011;70424;55.154;14.722;2024-01-07T11:10:13;8.93;;;4.35;;
80961;SDS011;70424;55.154;14.722;2024-01-07T11:12:43;8.68;;;4.72;;
80961;SDS011;70424;55.154;14.722;2024-01-07T11:15:08;8.95;;;4.80;;
80961;SDS011;70424;55.154;14.722;2024-01-07T11:20:01;6.53;;;4.18;;
80961;SDS011;70424;55.154;14.722;2024-01-07T11:22:28;7.18;;;4.63;;
80961;SDS011;70424;55.154;14.722;2024-01-07T11:24:56;8.40;;;4.20;;
80961;SDS011;70424;55.154;14.722;2024-01-07T11:27:24;10.45;;;4.82;;
80961;SDS011;70424;55.154;14.722;2024-01-07T11:32:21;7.68;;;3.80;;
80961;SDS011;70424;55.154;14.722;2024-01-07T11:34:51;5.97;;;3.28;;
80961;SDS011;70424;55.154;14.722;2024-01-07T11:37:18;8.55;;;4.85;;
80961;SDS011;70424;55.154;14.722;2024-01-07T11:39:44;6.68;;;3.85;;
80961;SDS011;70424;55.154;14.722;2024-01-07T11:42:11;5.77;;;3.40;;
80961;SDS011;70424;55.154;14.722;2024-01-07T11:44:38;7.05;;;3.70;;
80961;SDS011;70424;55.154;14.722;2024-01-07T11:47:10;8.57;;;4.63;;
80961;SDS011;70424;55.154;14.722;2024-01-07T11:49:36;6.60;;;3.75;;
80961;SDS011;70424;55.154;14.722;2024-01-07T11:52:03;7.72;;;4.22;;
80961;SDS011;70424;55.154;14.722;2024-01-07T11:56:55;7.50;;;3.88;;
80961;SDS011;70424;55.154;14.722;2024-01-07T11:59:21;11.65;;;4.03;;
80961;SDS011;70424;55.154;14.722;2024-01-07T12:01:47;8.20;;;4.22;;
80961;SDS011;70424;55.154;14.722;2024-01-07T12:04:13;8.23;;;4.05;;
80961;SDS011;70424;55.154;14.722;2024-01-07T12:06:38;7.15;;;3.75;;
80961;SDS011;70424;55.154;14.722;2024-01-07T12:09:04;7.90;;;3.97;;
80961;SDS011;70424;55.154;14.722;2024-01-07T12:11:29;6.80;;;3.97;;
80961;SDS011;70424;55.154;14.722;2024-01-07T12:13:55;6.90;;;3.63;;
80961;SDS011;70424;55.154;14.722;2024-01-07T12:16:22;8.55;;;3.80;;
80961;SDS011;70424;55.154;14.722;2024-01-07T12:18:47;7.13;;;3.88;;
80961;SDS011;70424;55.154;14.722;2024-01-07T12:21:14;8.63;;;3.83;;
80961;SDS011;70424;55.154;14.722;2024-01-07T12:23:47;8.43;;;4.20;;
80961;SDS011;70424;55.154;14.722;2024-01-07T12:26:13;7.68;;;3.63;;
80961;SDS011;70424;55.154;14.722;2024-01-07T12:28:39;6.78;;;3.67;;
80961;SDS011;70424;55.154;14.722;2024-01-07T12:31:04;6.38;;;3.10;;
80961;SDS011;70424;55.154;14.722;2024-01-07T12:33:30;7.85;;;3.90;;
80961;SDS011;70424;55.154;14.722;2024-01-07T12:35:57;6.78;;;3.28;;
80961;SDS011;70424;55.154;14.722;2024-01-07T12:38:26;6.38;;;3.22;;
80961;SDS011;70424;55.154;14.722;2024-01-07T12:40:52;7.55;;;3.72;;
80961;SDS011;70424;55.154;14.722;2024-01-07T12:43:18;6.40;;;3.67;;
80961;SDS011;70424;55.154;14.722;2024-01-07T12:45:44;6.35;;;3.40;;
80961;SDS011;70424;55.154;14.722;2024-01-07T12:48:09;5.60;;;3.25;;
80961;SDS011;70424;55.154;14.722;2024-01-07T12:50:35;5.68;;;3.13;;
80961;SDS011;70424;55.154;14.722;2024-01-07T12:53:00;6.40;;;2.95;;
80961;SDS011;70424;55.154;14.722;2024-01-07T12:55:26;5.43;;;2.85;;
80961;SDS011;70424;55.154;14.722;2024-01-07T12:57:51;6.43;;;3.28;;
80961;SDS011;70424;55.154;14.722;2024-01-07T13:00:17;4.57;;;2.80;;
80961;SDS011;70424;55.154;14.722;2024-01-07T13:02:42;6.85;;;3.00;;
80961;SDS011;70424;55.154;14.722;2024-01-07T13:07:34;6.38;;;3.65;;
80961;SDS011;70424;55.154;14.722;2024-01-07T13:10:00;6.85;;;3.20;;
80961;SDS011;70424;55.154;14.722;2024-01-07T13:12:26;6.43;;;3.17;;
80961;SDS011;70424;55.154;14.722;2024-01-07T13:14:51;7.88;;;3.75;;
80961;SDS011;70424;55.154;14.722;2024-01-07T13:17:17;5.18;;;2.95;;
80961;SDS011;70424;55.154;14.722;2024-01-07T13:19:43;6.63;;;3.50;;
80961;SDS011;70424;55.154;14.722;2024-01-07T13:22:08;7.20;;;3.70;;
80961;SDS011;70424;55.154;14.722;2024-01-07T13:24:34;7.05;;;3.97;;
80961;SDS011;70424;55.154;14.722;2024-01-07T13:27:00;7.35;;;3.55;;
80961;SDS011;70424;55.154;14.722;2024-01-07T13:29:25;6.47;;;3.38;;
80961;SDS011;70424;55.154;14.722;2024-01-07T13:31:51;5.95;;;3.35;;
80961;SDS011;70424;55.154;14.722;2024-01-07T13:34:16;6.30;;;3.45;;
80961;SDS011;70424;55.154;14.722;2024-01-07T13:36:43;8.10;;;4.22;;
80961;SDS011;70424;55.154;14.722;2024-01-07T13:39:09;7.97;;;4.05;;
80961;SDS011;70424;55.154;14.722;2024-01-07T13:41:35;6.88;;;3.92;;
80961;SDS011;70424;55.154;14.722;2024-01-07T13:44:01;7.05;;;3.25;;
80961;SDS011;70424;55.154;14.722;2024-01-07T13:46:30;5.47;;;3.15;;
80961;SDS011;70424;55.154;14.722;2024-01-07T13:48:55;8.70;;;3.88;;
80961;SDS011;70424;55.154;14.722;2024-01-07T13:51:20;6.47;;;3.40;;
80961;SDS011;70424;55.154;14.722;2024-01-07T13:53:46;6.28;;;3.78;;
80961;SDS011;70424;55.154;14.722;2024-01-07T13:56:12;9.38;;;3.78;;
80961;SDS011;70424;55.154;14.722;2024-01-07T13:58:38;6.38;;;3.63;;
80961;SDS011;70424;55.154;14.722;2024-01-07T14:01:03;8.10;;;3.97;;
80961;SDS011;70424;55.154;14.722;2024-01-07T14:03:30;7.50;;;4.03;;
80961;SDS011;70424;55.154;14.722;2024-01-07T14:05:57;7.75;;;4.05;;
80961;SDS011;70424;55.154;14.722;2024-01-07T14:08:23;7.03;;;3.70;;
80961;SDS011;70424;55.154;14.722;2024-01-07T14:10:48;5.53;;;3.00;;
80961;SDS011;70424;55.154;14.722;2024-01-07T14:13:14;7.32;;;3.00;;
80961;SDS011;70424;55.154;14.722;2024-01-07T14:15:39;7.43;;;3.55;;
80961;SDS011;70424;55.154;14.722;2024-01-07T14:18:04;6.07;;;3.55;;
80961;SDS011;70424;55.154;14.722;2024-01-07T14:20:30;7.53;;;3.90;;
80961;SDS011;70424;55.154;14.722;2024-01-07T14:22:55;6.57;;;4.00;;
80961;SDS011;70424;55.154;14.722;2024-01-07T14:25:21;7.15;;;4.03;;
80961;SDS011;70424;55.154;14.722;2024-01-07T14:27:46;6.68;;;3.20;;
80961;SDS011;70424;55.154;14.722;2024-01-07T14:30:12;6.85;;;3.58;;
80961;SDS011;70424;55.154;14.722;2024-01-07T14:32:39;6.20;;;3.20;;
80961;SDS011;70424;55.154;14.722;2024-01-07T14:35:04;6.15;;;3.25;;
80961;SDS011;70424;55.154;14.722;2024-01-07T14:37:30;7.18;;;3.95;;
80961;SDS011;70424;55.154;14.722;2024-01-07T14:39:56;6.00;;;3.25;;
80961;SDS011;70424;55.154;14.722;2024-01-07T14:42:21;7.63;;;3.60;;